createdAt,value
2018-06-09T00:01:48.974Z,56.09
2018-06-09T00:04:18.717Z,55.52
2018-06-09T00:06:49.666Z,55.88
2018-06-09T00:09:19.965Z,55.41
2018-06-09T00:11:50.722Z,55.05
2018-06-09T00:14:21.333Z,56.24
2018-06-09T00:16:51.937Z,55.16
2018-06-09T00:19:23.021Z,54.17
2018-06-09T00:21:53.574Z,54.95
2018-06-09T00:24:23.961Z,54.03
2018-06-09T00:26:56.026Z,54.57
2018-06-09T00:29:27.876Z,54.09
2018-06-09T00:31:57.837Z,54.13
2018-06-09T00:34:27.807Z,54.25
2018-06-09T00:37:00.146Z,54.41
2018-06-09T00:39:30.164Z,54.47
2018-06-09T00:42:00.972Z,54.50
2018-06-09T00:44:31.753Z,54.66
2018-06-09T00:47:01.142Z,54.75
2018-06-09T00:49:30.898Z,53.83
2018-06-09T00:52:01.236Z,54.20
2018-06-09T00:54:32.461Z,54.80
2018-06-09T00:57:02.606Z,54.50
2018-06-09T00:59:33.745Z,54.66
2018-06-09T01:02:05.015Z,54.63
2018-06-09T01:04:36.096Z,54.26
2018-06-09T01:07:06.386Z,54.40
2018-06-09T01:09:37.873Z,54.79
2018-06-09T01:12:07.799Z,55.13
2018-06-09T01:14:37.594Z,54.97
2018-06-09T01:17:09.126Z,55.23
2018-06-09T01:19:39.375Z,55.24
2018-06-09T01:22:12.311Z,55.51
2018-06-09T01:24:42.776Z,56.07
2018-06-09T01:27:12.983Z,55.22
2018-06-09T01:29:49.192Z,56.77
2018-06-09T01:32:19.767Z,57.25
2018-06-09T01:34:49.500Z,57.60
2018-06-09T01:37:20.284Z,57.52
2018-06-09T01:39:50.805Z,57.71
2018-06-09T01:42:21.317Z,57.89
2018-06-09T01:44:52.220Z,57.41
2018-06-09T01:47:22.161Z,58.07
2018-06-09T01:49:53.266Z,57.34
2018-06-09T01:52:23.331Z,57.12
2018-06-09T01:54:53.942Z,56.75
2018-06-09T01:57:24.040Z,56.43
2018-06-09T01:59:54.213Z,54.59
2018-06-09T02:02:25.382Z,55.12
2018-06-09T02:04:56.193Z,54.70
2018-06-09T02:07:27.166Z,54.19
2018-06-09T02:09:58.329Z,53.72
2018-06-09T02:12:28.282Z,54.05
2018-06-09T02:14:58.351Z,54.61
2018-06-09T02:17:28.577Z,54.26
2018-06-09T02:19:58.637Z,54.57
2018-06-09T02:22:28.586Z,54.61
2018-06-09T02:24:59.473Z,53.86
2018-06-09T02:27:29.182Z,53.86
2018-06-09T02:29:58.873Z,53.91
2018-06-09T02:32:29.420Z,54.13
2018-06-09T02:34:59.116Z,54.26
2018-06-09T02:37:29.187Z,54.67
2018-06-09T02:39:58.884Z,54.10
2018-06-09T02:42:30.178Z,54.28
2018-06-09T02:44:59.938Z,54.42
2018-06-09T02:47:29.802Z,53.48
2018-06-09T02:49:59.487Z,53.93
2018-06-09T02:52:29.594Z,53.29
2018-06-09T02:54:59.997Z,52.47
2018-06-09T02:57:30.431Z,52.35
2018-06-09T03:00:00.130Z,52.97
2018-06-09T03:02:31.004Z,53.07
2018-06-09T03:05:00.705Z,53.59
2018-06-09T03:07:30.440Z,53.64
2018-06-09T03:10:00.134Z,53.30
2018-06-09T03:12:30.538Z,53.46
2018-06-09T03:15:00.889Z,53.80
2018-06-09T03:17:30.618Z,53.27
2018-06-09T03:20:00.560Z,53.48
2018-06-09T03:22:30.299Z,53.73
2018-06-09T03:25:00.137Z,53.22
2018-06-09T03:27:30.551Z,53.45
2018-06-09T03:30:01.897Z,53.57
2018-06-09T03:32:31.820Z,53.21
2018-06-09T03:35:01.550Z,52.97
2018-06-09T03:37:32.972Z,52.84
2018-06-09T03:40:02.996Z,52.61
2018-06-09T03:42:33.107Z,53.02
2018-06-09T03:45:03.201Z,52.88
2018-06-09T03:47:34.585Z,52.66
2018-06-09T03:50:05.229Z,52.33
2018-06-09T03:52:35.013Z,51.05
2018-06-09T03:55:06.452Z,51.35
2018-06-09T03:57:36.873Z,51.38
2018-06-09T04:00:08.077Z,52.41
2018-06-09T04:02:37.718Z,52.40
2018-06-09T04:05:08.775Z,52.18
2018-06-09T04:07:38.773Z,52.73
2018-06-09T04:10:08.623Z,52.73
2018-06-09T04:12:38.373Z,52.94
2018-06-09T04:15:08.080Z,53.18
2018-06-09T04:17:38.885Z,53.21
2018-06-09T04:20:09.335Z,52.45
2018-06-09T04:22:39.625Z,53.68
2018-06-09T04:25:10.684Z,53.42
2018-06-09T04:27:41.845Z,53.28
2018-06-09T04:30:11.805Z,53.44
2018-06-09T04:32:41.584Z,53.57
2018-06-09T04:35:11.838Z,53.01
2018-06-09T04:37:41.193Z,51.46
2018-06-09T04:43:43.707Z,52.66
2018-06-09T04:46:14.379Z,53.00
2018-06-09T04:48:44.343Z,52.78
2018-06-09T04:51:15.662Z,51.87
2018-06-09T04:53:46.166Z,52.94
2018-06-09T04:56:16.746Z,51.91
2018-06-09T04:58:48.051Z,51.46
2018-06-09T05:01:18.225Z,52.22
2018-06-09T05:03:48.436Z,50.73
2018-06-09T05:06:18.205Z,50.22
2018-06-09T05:08:48.857Z,51.15
2018-06-09T05:11:19.626Z,50.72
2018-06-09T05:13:49.431Z,51.00
2018-06-09T05:16:19.448Z,49.21
2018-06-09T05:18:50.147Z,48.46
2018-06-09T05:21:20.846Z,48.50
2018-06-09T05:23:50.724Z,48.62
2018-06-09T05:26:20.457Z,49.19
2018-06-09T05:28:50.969Z,47.66
2018-06-09T05:31:20.926Z,49.61
2018-06-09T05:33:51.365Z,47.46
2018-06-09T05:36:21.420Z,48.45
2018-06-09T05:38:51.067Z,50.11
2018-06-09T05:41:21.699Z,49.45
2018-06-09T05:43:51.884Z,50.56
2018-06-09T05:46:22.142Z,49.54
2018-06-09T05:48:53.113Z,50.29
2018-06-09T05:51:23.073Z,48.78
2018-06-09T05:53:53.316Z,49.32
2018-06-09T05:56:23.543Z,47.30
2018-06-09T05:58:54.977Z,47.89
2018-06-09T06:01:24.930Z,47.83
2018-06-09T06:03:55.462Z,48.55
2018-06-09T06:06:27.200Z,48.52
2018-06-09T06:08:58.360Z,47.87
2018-06-09T06:11:28.118Z,49.13
2018-06-09T06:13:59.860Z,47.97
2018-06-09T06:16:31.094Z,47.94
2018-06-09T06:19:01.555Z,47.96
2018-06-09T06:21:32.005Z,49.21
2018-06-09T06:24:01.665Z,48.35
2018-06-09T06:26:31.646Z,49.23
2018-06-09T06:29:01.421Z,49.40
2018-06-09T06:31:31.297Z,48.05
2018-06-09T06:34:01.082Z,45.83
2018-06-09T06:36:31.654Z,45.71
2018-06-09T06:39:01.580Z,46.52
2018-06-09T06:41:31.278Z,46.07
2018-06-09T06:44:00.999Z,46.49
2018-06-09T06:46:31.641Z,45.71
2018-06-09T06:49:03.417Z,46.29
2018-06-09T06:51:33.512Z,46.79
2018-06-09T06:54:03.698Z,45.04
2018-06-09T06:56:33.402Z,46.60
2018-06-09T06:59:03.053Z,46.78
2018-06-09T07:01:32.677Z,46.09
2018-06-09T07:04:02.310Z,46.54
2018-06-09T07:06:32.269Z,46.07
2018-06-09T07:09:02.194Z,45.48
2018-06-09T07:11:33.054Z,46.09
2018-06-09T07:20:50.998Z,47.22
2018-06-09T07:23:20.598Z,47.47
2018-06-09T07:25:50.449Z,43.47
2018-06-09T07:28:20.175Z,44.04
2018-06-09T07:30:49.856Z,44.19
2018-06-09T07:33:19.441Z,44.50
2018-06-09T07:35:49.145Z,42.44
2018-06-09T07:38:19.031Z,43.25
2018-06-09T07:40:49.086Z,42.36
2018-06-09T07:43:19.187Z,42.16
2018-06-09T07:45:50.204Z,43.12
2018-06-09T07:48:20.737Z,42.95
2018-06-09T07:50:50.836Z,41.51
2018-06-09T07:53:21.388Z,43.43
2018-06-09T07:55:52.335Z,43.61
2018-06-09T07:58:22.349Z,40.19
2018-06-09T08:00:53.048Z,40.54
2018-06-09T08:03:22.666Z,40.70
2018-06-09T08:05:52.528Z,41.84
2018-06-09T08:08:22.143Z,41.34
2018-06-09T08:10:52.160Z,42.22
2018-06-09T08:13:22.315Z,39.57
2018-06-09T08:15:52.155Z,40.43
2018-06-09T08:18:22.147Z,40.54
2018-06-09T08:20:53.166Z,40.25
2018-06-09T08:23:22.955Z,41.08
2018-06-09T08:25:52.861Z,41.33
2018-06-09T08:28:23.428Z,40.63
2018-06-09T08:30:55.349Z,42.15
2018-06-09T08:33:25.117Z,42.23
2018-06-09T08:35:55.022Z,43.09
2018-06-09T08:38:24.797Z,42.24
2018-06-09T08:40:54.473Z,42.04
2018-06-09T08:43:24.717Z,41.99
2018-06-09T08:45:54.958Z,40.99
2018-06-09T08:48:26.106Z,41.34
2018-06-09T08:50:58.209Z,41.98
2018-06-09T08:53:29.756Z,41.71
2018-06-09T08:56:01.826Z,41.24
2018-06-09T08:58:32.198Z,41.22
2018-06-09T09:01:04.542Z,41.34
2018-06-09T09:03:34.430Z,41.43
2018-06-09T09:06:04.642Z,41.33
2018-06-09T09:08:35.059Z,40.88
2018-06-09T09:11:04.752Z,41.51
2018-06-09T09:13:34.803Z,41.03
2018-06-09T09:16:04.548Z,40.80
2018-06-09T09:18:35.196Z,40.60
2018-06-09T09:21:06.123Z,40.31
2018-06-09T09:23:35.769Z,40.23
2018-06-09T09:26:05.489Z,39.82
2018-06-09T09:28:35.388Z,39.97
2018-06-09T09:31:05.216Z,39.66
2018-06-09T09:33:36.247Z,38.66
2018-06-09T09:36:06.338Z,37.61
2018-06-09T09:38:36.400Z,38.40
2018-06-09T09:41:06.667Z,38.80
2018-06-09T09:43:37.492Z,37.71
2018-06-09T09:46:08.966Z,38.39
2018-06-09T09:48:40.098Z,37.98
2018-06-09T09:51:12.291Z,38.47
2018-06-09T09:53:43.135Z,38.58
2018-06-09T09:56:14.001Z,38.37
2018-06-09T09:58:44.488Z,36.88
2018-06-09T10:01:19.442Z,36.19
2018-06-09T10:03:49.256Z,37.99
2018-06-09T10:06:18.974Z,37.81
2018-06-09T10:08:49.898Z,37.46
2018-06-09T10:11:19.897Z,37.62
2018-06-09T10:13:51.767Z,37.02
2018-06-09T10:16:21.801Z,36.90
2018-06-09T10:18:52.298Z,37.13
2018-06-09T10:21:22.205Z,37.44
2018-06-09T10:23:53.416Z,37.29
2018-06-09T10:26:24.020Z,36.63
2018-06-09T10:28:54.682Z,36.55
2018-06-09T10:31:25.148Z,36.61
2018-06-09T10:33:55.205Z,35.00
2018-06-09T10:36:25.095Z,34.29
2018-06-09T10:38:55.264Z,34.58
2018-06-09T10:41:24.987Z,36.12
2018-06-09T10:43:54.853Z,37.18
2018-06-09T10:46:25.178Z,34.91
2018-06-09T10:48:54.947Z,36.22
2018-06-09T10:51:24.982Z,35.29
2018-06-09T10:53:54.962Z,34.72
2018-06-09T10:56:25.674Z,33.48
2018-06-09T10:58:55.667Z,35.19
2018-06-09T11:01:25.659Z,36.51
2018-06-09T11:03:56.702Z,36.08
2018-06-09T11:06:26.428Z,35.82
2018-06-09T11:08:56.194Z,35.12
2018-06-09T11:11:25.919Z,34.52
2018-06-09T11:13:57.769Z,35.73
2018-06-09T11:16:28.321Z,35.22
2018-06-09T11:19:03.492Z,35.08
2018-06-09T11:21:34.533Z,34.49
2018-06-09T11:24:04.956Z,34.64
2018-06-09T11:26:34.622Z,34.39
2018-06-09T11:29:05.441Z,33.60
2018-06-09T11:31:35.238Z,34.44
2018-06-09T11:34:05.280Z,34.29
2018-06-09T11:36:35.264Z,34.07
2018-06-09T11:39:08.109Z,33.00
2018-06-09T11:41:38.576Z,33.13
2018-06-09T11:44:08.578Z,32.81
2018-06-09T11:46:38.862Z,33.03
2018-06-09T11:53:46.407Z,32.60
2018-06-09T11:56:17.220Z,33.60
2018-06-09T11:58:46.948Z,32.83
2018-06-09T12:01:16.729Z,33.21
2018-06-09T12:03:46.550Z,32.70
2018-06-09T12:06:16.302Z,33.82
2018-06-09T12:08:46.461Z,33.81
2018-06-09T12:11:16.220Z,33.65
2018-06-09T12:13:45.941Z,33.77
2018-06-09T12:16:15.543Z,34.49
2018-06-09T12:18:46.270Z,32.97
2018-06-09T12:21:16.621Z,34.50
2018-06-09T12:23:46.305Z,34.26
2018-06-09T12:26:16.177Z,35.06
2018-06-09T12:28:47.416Z,35.24
2018-06-09T12:31:17.343Z,34.92
2018-06-09T12:33:47.613Z,34.08
2018-06-09T12:36:17.455Z,34.88
2018-06-09T12:38:47.136Z,33.91
2018-06-09T12:41:16.841Z,33.85
2018-06-09T12:43:47.538Z,33.77
2018-06-09T12:46:17.223Z,33.14
2018-06-09T12:48:46.948Z,33.58
2018-06-09T12:51:16.639Z,34.03
2018-06-09T12:53:46.496Z,32.89
2018-06-09T12:56:16.749Z,33.34
2018-06-09T12:58:47.516Z,32.77
2018-06-09T13:01:18.341Z,32.92
2018-06-09T13:03:49.529Z,32.20
2018-06-09T13:06:19.505Z,33.37
2018-06-09T13:08:49.423Z,32.47
2018-06-09T13:11:19.272Z,32.12
2018-06-09T13:13:50.027Z,32.24
2018-06-09T13:16:19.905Z,32.75
2018-06-09T13:18:52.515Z,31.34
2018-06-09T13:21:24.042Z,31.70
2018-06-09T13:23:56.472Z,31.98
2018-06-09T13:26:31.144Z,31.44
2018-06-09T13:29:00.835Z,31.79
2018-06-09T13:31:31.430Z,30.71
2018-06-09T13:34:02.058Z,31.80
2018-06-09T13:36:32.835Z,31.52
2018-06-09T13:39:03.262Z,30.98
2018-06-09T13:41:34.727Z,30.32
2018-06-09T13:44:04.869Z,31.05
2018-06-09T13:46:35.034Z,31.25
2018-06-09T13:49:05.996Z,29.46
2018-06-09T13:51:36.861Z,28.43
2018-06-09T13:54:07.152Z,29.84
2018-06-09T13:56:38.438Z,30.97
2018-06-09T13:59:11.155Z,29.66
2018-06-09T14:01:41.904Z,30.20
2018-06-09T14:04:13.740Z,29.47
2018-06-09T14:06:44.061Z,29.13
2018-06-09T14:09:13.631Z,27.67
2018-06-09T14:11:43.383Z,28.71
2018-06-09T14:14:14.905Z,28.01
2018-06-09T14:16:45.491Z,29.35
2018-06-09T14:19:16.157Z,29.10
2018-06-09T14:21:46.395Z,28.11
2018-06-09T14:24:16.260Z,28.74
2018-06-09T14:26:47.459Z,29.13
2018-06-09T14:29:17.579Z,29.34
2018-06-09T14:31:50.207Z,27.19
2018-06-09T14:34:20.330Z,28.27
2018-06-09T14:36:50.691Z,27.02
2018-06-09T14:39:22.082Z,27.75
2018-06-09T14:41:56.191Z,27.17
2018-06-09T14:44:27.206Z,28.11
2018-06-09T14:46:56.880Z,27.92
2018-06-09T14:49:26.964Z,26.64
2018-06-09T14:51:57.645Z,26.14
2018-06-09T14:54:28.364Z,26.74
2018-06-09T14:56:58.272Z,26.85
2018-06-09T14:59:31.548Z,27.76
2018-06-09T15:02:02.390Z,29.41
2018-06-09T15:04:33.034Z,29.33
2018-06-09T15:07:02.663Z,30.09
2018-06-09T15:09:34.155Z,30.08
2018-06-09T15:12:04.003Z,29.78
2018-06-09T15:14:33.752Z,30.03
2018-06-09T15:17:05.603Z,30.58
2018-06-09T15:19:36.243Z,31.86
2018-06-09T15:22:06.534Z,31.75
2018-06-09T15:24:36.215Z,32.30
2018-06-09T15:27:05.799Z,32.19
2018-06-09T15:29:36.062Z,32.69
2018-06-09T15:33:34.816Z,33.97
2018-06-09T15:36:04.528Z,33.88
2018-06-09T15:38:35.287Z,34.44
2018-06-09T15:41:07.668Z,34.06
2018-06-09T15:43:37.384Z,33.60
2018-06-09T15:46:07.459Z,34.88
2018-06-09T15:48:37.885Z,36.02
2018-06-09T15:51:09.224Z,35.65
2018-06-09T15:53:39.244Z,35.47
2018-06-09T15:56:09.368Z,35.57
2018-06-09T15:58:40.545Z,35.63
2018-06-09T16:01:10.269Z,36.19
2018-06-09T16:03:40.114Z,36.41
2018-06-09T16:06:11.206Z,35.68
2018-06-09T16:08:41.808Z,36.17
2018-06-09T16:11:12.695Z,36.64
2018-06-09T16:13:43.845Z,37.13
2018-06-09T16:16:15.303Z,38.07
2018-06-09T16:18:45.112Z,41.09
2018-06-09T16:21:15.397Z,40.76
2018-06-09T16:23:46.095Z,43.76
2018-06-09T16:26:15.787Z,46.35
2018-06-09T16:28:45.679Z,47.54
2018-06-09T16:31:16.350Z,49.16
2018-06-09T16:33:49.454Z,48.82
2018-06-09T16:36:19.510Z,51.50
2018-06-09T16:38:50.722Z,51.99
2018-06-09T16:41:20.375Z,51.18
2018-06-09T16:43:50.090Z,51.81
2018-06-09T16:46:19.843Z,49.95
2018-06-09T16:48:51.526Z,50.59
2018-06-09T16:51:22.051Z,52.64
2018-06-09T16:53:51.931Z,51.94
2018-06-09T16:56:23.757Z,50.18
2018-06-09T16:58:53.475Z,50.05
2018-06-09T17:01:24.781Z,49.79
2018-06-09T17:03:54.485Z,48.76
2018-06-09T17:06:25.735Z,48.37
2018-06-09T17:08:55.457Z,49.00
2018-06-09T17:11:26.488Z,47.71
2018-06-09T17:14:01.606Z,48.31
2018-06-09T17:16:33.448Z,46.67
2018-06-09T17:19:04.044Z,45.89
2018-06-09T17:21:34.759Z,45.14
2018-06-09T17:24:05.217Z,45.59
2018-06-09T17:26:34.849Z,43.16
2018-06-09T17:29:05.311Z,43.44
2018-06-09T17:31:37.636Z,46.31
2018-06-09T17:34:10.010Z,46.24
2018-06-09T17:36:39.844Z,46.27
2018-06-09T17:39:10.072Z,46.66
2018-06-09T17:41:41.605Z,45.33
2018-06-09T17:44:11.842Z,45.16
2018-06-09T17:46:43.187Z,45.88
2018-06-09T17:49:13.998Z,45.77
2018-06-09T17:51:44.312Z,43.83
2018-06-09T17:54:14.309Z,44.79
2018-06-09T17:56:44.393Z,44.24
2018-06-09T17:59:14.276Z,44.28
2018-06-09T18:01:44.033Z,44.10
2018-06-09T18:04:14.649Z,44.44
2018-06-09T18:06:45.394Z,43.31
2018-06-09T18:09:15.388Z,45.07
2018-06-09T18:11:45.095Z,44.56
2018-06-09T18:14:14.426Z,44.56
2018-06-09T18:16:45.835Z,44.57
2018-06-09T18:19:16.168Z,44.89
2018-06-09T18:21:46.705Z,42.64
2018-06-09T18:24:16.462Z,44.45
2018-06-09T18:26:46.608Z,44.28
2018-06-09T18:29:17.442Z,44.13
2018-06-09T18:31:47.171Z,43.08
2018-06-09T18:34:17.346Z,44.63
2018-06-09T18:36:48.203Z,43.75
2018-06-09T18:39:18.768Z,43.35
2018-06-09T18:41:50.043Z,43.64
2018-06-09T18:44:20.835Z,44.21
2018-06-09T18:46:51.493Z,44.61
2018-06-09T18:49:21.557Z,44.61
2018-06-09T18:51:53.009Z,45.19
2018-06-09T18:54:23.315Z,43.84
2018-06-09T18:56:53.146Z,43.89
2018-06-09T18:59:24.676Z,45.53
2018-06-09T19:01:55.489Z,46.04
2018-06-09T19:04:25.538Z,45.70
2018-06-09T19:06:56.501Z,45.36
2018-06-09T19:09:26.130Z,46.45
2018-06-09T19:11:58.465Z,46.51
2018-06-09T19:14:28.731Z,45.73
2018-06-09T19:17:00.385Z,45.94
2018-06-09T19:19:32.273Z,45.35
2018-06-09T19:22:03.365Z,45.91
2018-06-09T19:24:34.180Z,45.73
2018-06-09T19:27:04.715Z,46.57
2018-06-09T19:29:35.145Z,45.60
2018-06-09T19:32:05.195Z,46.42
2018-06-09T19:34:35.635Z,46.71
2018-06-09T19:37:06.884Z,46.62
2018-06-09T19:39:37.925Z,46.77
2018-06-09T19:42:07.673Z,47.86
2018-06-09T19:44:38.424Z,47.10
2018-06-09T19:47:08.938Z,48.35
2018-06-09T19:49:39.314Z,48.67
2018-06-09T19:52:08.983Z,48.95
2018-06-09T19:54:40.220Z,48.32
2018-06-09T19:57:11.951Z,48.15
2018-06-09T19:59:42.120Z,48.52
2018-06-09T20:02:12.186Z,49.21
2018-06-09T20:04:42.470Z,49.35
2018-06-09T20:07:12.744Z,49.86
2018-06-09T20:09:43.850Z,50.62
2018-06-09T20:12:15.008Z,50.88
2018-06-09T20:14:46.560Z,50.16
2018-06-09T20:17:17.020Z,50.13
2018-06-09T20:19:47.271Z,50.08
2018-06-09T20:22:18.684Z,50.33
2018-06-09T20:24:49.339Z,50.11
2018-06-09T20:27:19.526Z,50.86
2018-06-09T20:29:50.912Z,51.03
2018-06-09T20:32:22.548Z,51.45
2018-06-09T20:34:52.834Z,50.95
2018-06-09T20:37:22.993Z,50.94
2018-06-09T20:39:54.924Z,50.77
2018-06-09T20:42:24.694Z,50.71
2018-06-09T20:44:54.019Z,51.44
2018-06-09T20:47:24.279Z,51.01
2018-06-09T20:49:56.227Z,51.12
2018-06-09T20:52:26.970Z,50.61
2018-06-09T20:54:57.735Z,50.59
2018-06-09T20:57:29.446Z,50.31
2018-06-09T21:00:01.718Z,51.10
2018-06-09T21:02:32.364Z,50.38
2018-06-09T21:05:02.673Z,50.43
2018-06-09T21:07:32.447Z,50.52
2018-06-09T21:10:03.474Z,50.06
2018-06-09T21:12:34.432Z,50.71
2018-06-09T21:15:06.540Z,50.63
2018-06-09T21:17:39.171Z,50.78
2018-06-09T21:20:13.723Z,51.10
2018-06-09T21:22:47.047Z,51.07
2018-06-09T21:25:18.795Z,50.98
2018-06-09T21:27:55.476Z,51.40
2018-06-09T21:30:30.746Z,51.15
2018-06-09T21:33:05.635Z,51.00
2018-06-09T21:35:56.359Z,51.14
2018-06-09T21:38:28.669Z,51.78
2018-06-09T21:41:03.570Z,51.01
2018-06-09T21:43:44.830Z,51.79
2018-06-09T21:46:19.722Z,51.94
2018-06-09T21:48:52.659Z,52.46
2018-06-09T21:51:23.260Z,52.65
2018-06-09T21:53:53.559Z,51.83
2018-06-09T21:56:24.566Z,52.37
2018-06-09T21:58:54.976Z,52.26
2018-06-09T22:01:25.356Z,53.03
2018-06-09T22:03:58.066Z,53.15
2018-06-09T22:06:28.500Z,52.78
2018-06-09T22:08:58.826Z,52.40
2018-06-09T22:11:28.642Z,52.83
2018-06-09T22:14:02.653Z,52.58
2018-06-09T22:16:32.357Z,52.98
2018-06-09T22:19:03.295Z,53.74
2018-06-09T22:21:34.810Z,53.38
2018-06-09T22:24:05.253Z,54.18
2018-06-09T22:26:36.998Z,53.18
2018-06-09T22:29:08.198Z,53.55
2018-06-09T22:31:39.583Z,53.54
2018-06-09T22:34:11.129Z,53.32
2018-06-09T22:36:40.826Z,54.05
2018-06-09T22:39:12.672Z,54.04
2018-06-09T22:41:42.611Z,54.00
2018-06-09T22:44:14.163Z,54.04
2018-06-09T22:46:46.411Z,54.05
2018-06-09T22:49:18.565Z,54.52
2018-06-09T22:51:49.467Z,54.14
2018-06-09T22:54:21.082Z,54.65
2018-06-09T22:56:52.292Z,54.90
2018-06-09T22:59:22.720Z,54.83
2018-06-09T23:01:53.884Z,54.36
2018-06-09T23:04:23.644Z,54.39
2018-06-09T23:06:53.472Z,54.29
2018-06-09T23:09:24.873Z,54.05
2018-06-09T23:11:57.544Z,54.53
2018-06-09T23:14:32.773Z,54.43
2018-06-09T23:17:02.640Z,55.72
2018-06-09T23:19:32.407Z,55.10
2018-06-09T23:22:02.772Z,54.68
2018-06-09T23:24:33.637Z,54.72
2018-06-09T23:27:04.012Z,53.70
2018-06-09T23:29:34.523Z,53.95
2018-06-09T23:32:05.463Z,54.83
2018-06-09T23:34:35.938Z,54.73
2018-06-09T23:37:05.732Z,55.18
2018-06-09T23:39:35.380Z,55.32
2018-06-09T23:42:05.553Z,54.96
2018-06-09T23:44:35.422Z,54.84
2018-06-09T23:47:05.700Z,55.64
2018-06-09T23:49:39.136Z,55.61
2018-06-09T23:52:10.050Z,56.20
2018-06-09T23:54:44.202Z,56.58
2018-06-09T23:57:16.641Z,57.28
2018-06-09T23:59:47.330Z,58.67
